Time;durP1;ratioP1;P1;durP2;ratioP2;P2;SDS_P1;SDS_P2;PMS_P1;PMS_P2;Temp;Humidity;BMP_temperature;BMP_pressure;BME280_temperature;BME280_humidity;BME280_pressure;Samples;Min_cycle;Max_cycle;Signal;HPM_P1;HPM_P2
2023/10/19 00:00:36;;;;;;;9.85;5.30;;;19.80;59.40;;;;;;5106303;28;20043;-58
2023/10/19 00:03:02;;;;;;;11.60;5.80;;;19.80;59.90;;;;;;5112725;28;20022;-58
2023/10/19 00:05:32;;;;;;;11.73;5.25;;;19.80;59.60;;;;;;5107799;28;20137;-56
2023/10/19 00:07:59;;;;;;;;;;;19.80;59.60;;;;;;5106308;28;20506;-58
2023/10/19 00:10:30;;;;;;;9.48;5.13;;;19.80;59.60;;;;;;5100635;28;19961;-58
2023/10/19 00:13:04;;;;;;;10.90;5.63;;;19.80;59.50;;;;;;5122392;22;20656;-48
2023/10/19 00:15:46;;;;;;;9.02;5.65;;;19.80;59.50;;;;;;5091707;28;20364;-48
2023/10/19 00:23:13;;;;;;;12.48;5.45;;;19.80;59.70;;;;;;5081959;28;20028;-48
2023/10/19 00:25:41;;;;;;;11.73;5.80;;;19.80;59.70;;;;;;5077315;28;20507;-46
2023/10/19 00:28:08;;;;;;;11.43;5.80;;;19.80;59.70;;;;;;5070114;28;20028;-48
2023/10/19 00:30:37;;;;;;;11.63;5.93;;;19.80;59.70;;;;;;5063110;28;20025;-49
2023/10/19 00:33:03;;;;;;;10.75;5.57;;;19.80;59.80;;;;;;5069561;28;20082;-48
2023/10/19 00:35:42;;;;;;;10.25;5.72;;;19.80;60.20;;;;;;5072114;28;20050;-52
2023/10/19 00:41:00;;;;;;;12.45;5.60;;;19.80;59.70;;;;;;5062511;28;20473;-52
2023/10/19 00:43:28;;;;;;;8.55;4.90;;;19.80;59.80;;;;;;5071418;28;20115;-52
2023/10/19 00:45:54;;;;;;;16.75;6.18;;;19.80;59.80;;;;;;5065936;28;20035;-52
2023/10/19 00:48:26;;;;;;;8.93;4.90;;;19.80;59.70;;;;;;5065583;28;20017;-47
2023/10/19 00:51:01;;;;;;;11.68;5.30;;;19.80;59.60;;;;;;5063216;28;20028;-48
2023/10/19 00:53:29;;;;;;;11.88;5.70;;;19.80;59.60;;;;;;5056716;28;20522;-49
2023/10/19 00:55:55;;;;;;;10.93;5.60;;;19.80;59.80;;;;;;5057308;28;20073;-48
2023/10/19 00:58:29;;;;;;;9.32;5.60;;;19.80;59.70;;;;;;5072019;28;20622;-46
2023/10/19 01:00:55;;;;;;;9.88;5.13;;;19.80;59.80;;;;;;5066333;28;20121;-46
2023/10/19 01:03:21;;;;;;;10.25;5.55;;;19.80;59.90;;;;;;5067365;28;20048;-47
2023/10/19 01:05:48;;;;;;;12.63;5.88;;;19.80;59.60;;;;;;5070110;28;20024;-49
2023/10/19 01:08:24;;;;;;;7.72;5.03;;;19.80;59.70;;;;;;5063129;28;20111;-47
2023/10/19 01:10:52;;;;;;;8.85;5.10;;;19.80;59.80;;;;;;5080530;28;20016;-49
2023/10/19 01:13:26;;;;;;;9.43;4.93;;;19.80;59.70;;;;;;5065307;28;20397;-48
2023/10/19 01:15:54;;;;;;;11.50;5.82;;;19.80;59.80;;;;;;5078377;28;20024;-48
2023/10/19 01:18:19;;;;;;;10.80;5.43;;;19.80;60.00;;;;;;5072070;28;20103;-46
2023/10/19 01:20:55;;;;;;;10.75;5.45;;;19.80;59.90;;;;;;5063090;28;20108;-47
2023/10/19 01:23:21;;;;;;;12.93;5.68;;;19.80;60.10;;;;;;5045066;28;20036;-46
2023/10/19 01:31:16;;;;;;;12.98;5.57;;;19.70;59.90;;;;;;5079481;28;20033;-46
2023/10/19 01:33:46;;;;;;;10.95;5.40;;;19.80;60.20;;;;;;5066534;28;20105;-48
2023/10/19 01:36:37;;;;;;;8.75;5.38;;;19.80;60.20;;;;;;5071098;28;20129;-46
2023/10/19 01:39:01;;;;;;;10.27;5.60;;;19.80;60.30;;;;;;5068845;28;20090;-45
2023/10/19 01:41:27;;;;;;;11.98;6.10;;;19.70;60.20;;;;;;5056652;28;20061;-46
2023/10/19 01:43:54;;;;;;;9.02;5.43;;;19.70;60.20;;;;;;5066015;28;20456;-49
2023/10/19 01:46:23;;;;;;;10.20;5.68;;;19.80;60.30;;;;;;5074357;28;20553;-46
2023/10/19 01:48:54;;;;;;;9.35;5.22;;;19.70;60.20;;;;;;5076485;28;20027;-46
2023/10/19 01:51:25;;;;;;;10.88;5.78;;;19.70;60.30;;;;;;5059227;28;20106;-51
2023/10/19 01:53:51;;;;;;;7.82;5.25;;;19.70;60.20;;;;;;5066316;28;20032;-49
2023/10/19 01:56:17;;;;;;;9.05;5.03;;;19.70;60.20;;;;;;5066287;28;20092;-51
2023/10/19 01:58:46;;;;;;;9.27;5.30;;;19.70;60.30;;;;;;5070330;28;20035;-50
2023/10/19 02:03:42;;;;;;;10.88;5.38;;;19.70;60.40;;;;;;5061656;28;20036;-48
2023/10/19 02:08:53;;;;;;;11.13;5.88;;;19.70;60.30;;;;;;5072565;28;20020;-49
2023/10/19 02:11:25;;;;;;;9.88;5.72;;;19.70;60.20;;;;;;5062854;28;20366;-46
2023/10/19 02:13:59;;;;;;;9.55;5.28;;;19.70;60.30;;;;;;5067409;28;20055;-52
2023/10/19 02:16:29;;;;;;;9.20;5.03;;;19.70;60.20;;;;;;5062965;28;20074;-49
2023/10/19 02:18:55;;;;;;;10.40;5.50;;;19.70;60.30;;;;;;5067521;28;20101;-48
2023/10/19 02:21:30;;;;;;;8.85;5.35;;;19.70;60.40;;;;;;5063420;28;20025;-52
2023/10/19 02:23:59;;;;;;;10.70;5.10;;;19.70;60.30;;;;;;5077992;28;20036;-50
2023/10/19 02:26:28;;;;;;;13.00;6.23;;;19.70;60.40;;;;;;5064952;28;20020;-51
2023/10/19 02:28:55;;;;;;;11.27;5.18;;;19.70;60.30;;;;;;5066654;28;20844;-49
2023/10/19 02:31:24;;;;;;;13.10;5.63;;;19.70;60.40;;;;;;5076228;28;20028;-46
2023/10/19 02:33:52;;;;;;;9.38;5.32;;;19.70;60.30;;;;;;5064032;28;20102;-49
2023/10/19 02:36:19;;;;;;;8.55;5.28;;;19.70;60.30;;;;;;5071846;28;20070;-50
2023/10/19 02:38:48;;;;;;;8.50;5.45;;;19.70;60.20;;;;;;5074136;28;20508;-48
2023/10/19 02:41:15;;;;;;;9.95;5.45;;;19.70;60.30;;;;;;5065713;28;20107;-49
2023/10/19 02:43:45;;;;;;;11.88;5.35;;;19.70;60.30;;;;;;5065529;28;20113;-48
2023/10/19 02:46:13;;;;;;;8.73;5.07;;;19.70;60.40;;;;;;5062466;28;20432;-48
2023/10/19 02:48:44;;;;;;;9.10;5.57;;;19.70;60.30;;;;;;5069986;28;20326;-49
2023/10/19 02:51:11;;;;;;;10.43;5.15;;;19.70;60.40;;;;;;5079212;28;20020;-48
2023/10/19 02:53:39;;;;;;;10.52;5.65;;;19.70;60.50;;;;;;5063683;28;20063;-47
2023/10/19 02:56:12;;;;;;;8.10;5.10;;;19.70;60.30;;;;;;5082003;28;20120;-48
2023/10/19 02:58:43;;;;;;;11.52;5.63;;;19.70;60.40;;;;;;5070595;28;20033;-46
2023/10/19 03:01:21;;;;;;;9.00;5.35;;;19.70;60.40;;;;;;5074612;28;20028;-49
2023/10/19 03:03:51;;;;;;;9.13;5.38;;;19.70;60.30;;;;;;5085493;28;20045;-50
2023/10/19 03:06:21;;;;;;;8.15;5.15;;;19.70;60.20;;;;;;5078371;28;20042;-54
2023/10/19 03:08:57;;;;;;;8.50;5.43;;;19.70;60.30;;;;;;5078647;28;20020;-51
2023/10/19 03:11:27;;;;;;;9.40;5.30;;;19.70;60.10;;;;;;5066494;28;20484;-50
2023/10/19 03:13:53;;;;;;;;;;;19.70;60.20;;;;;;5075544;28;20541;-52
2023/10/19 03:16:20;;;;;;;9.93;5.72;;;19.70;60.30;;;;;;5065891;28;19908;-49
2023/10/19 03:18:47;;;;;;;8.25;5.22;;;19.70;60.20;;;;;;5075849;28;20082;-52
2023/10/19 03:21:13;;;;;;;11.50;5.97;;;19.70;60.10;;;;;;5070229;28;20161;-50
2023/10/19 03:23:40;;;;;;;10.32;5.68;;;19.70;60.10;;;;;;5070974;28;20116;-47
2023/10/19 03:29:02;;;;;;;9.40;5.50;;;19.70;60.60;;;;;;5072152;28;20476;-48
2023/10/19 03:31:28;;;;;;;10.82;5.97;;;19.70;60.20;;;;;;5068579;28;20492;-48
2023/10/19 03:33:54;;;;;;;12.13;5.57;;;19.70;60.10;;;;;;5072883;28;20028;-51
2023/10/19 03:36:22;;;;;;;9.18;5.45;;;19.70;60.20;;;;;;5061474;28;20542;-45
2023/10/19 03:38:49;;;;;;;10.82;5.80;;;19.70;60.10;;;;;;5068138;28;20495;-49
2023/10/19 03:41:20;;;;;;;10.48;5.72;;;19.70;60.00;;;;;;5074577;28;20105;-48
2023/10/19 03:43:51;;;;;;;10.38;5.85;;;19.70;60.10;;;;;;5071978;28;20043;-45
2023/10/19 03:46:37;;;;;;;10.52;5.82;;;19.70;60.10;;;;;;5060309;28;20025;-46
2023/10/19 03:49:12;;;;;;;9.32;5.45;;;19.70;60.10;;;;;;5068918;28;20033;-51
2023/10/19 03:51:40;;;;;;;11.93;5.50;;;19.70;60.00;;;;;;5069224;28;20048;-50
2023/10/19 03:54:21;;;;;;;13.48;5.80;;;19.70;60.00;;;;;;5072646;28;20028;-46
2023/10/19 03:56:53;;;;;;;14.52;6.15;;;19.70;60.10;;;;;;5064374;28;20044;-48
2023/10/19 03:59:20;;;;;;;12.02;6.22;;;19.70;60.10;;;;;;5069924;28;20039;-48
2023/10/19 04:01:46;;;;;;;12.60;5.75;;;19.70;60.10;;;;;;5073655;28;20028;-45
2023/10/19 04:04:13;;;;;;;9.00;5.60;;;19.70;60.10;;;;;;5069738;28;20123;-47
2023/10/19 04:06:40;;;;;;;10.63;5.88;;;19.70;60.10;;;;;;5069558;28;20020;-49
2023/10/19 04:09:06;;;;;;;10.65;5.90;;;19.70;60.10;;;;;;5076049;28;20053;-47
2023/10/19 04:11:33;;;;;;;10.43;5.80;;;19.70;60.00;;;;;;5069180;28;20064;-47
2023/10/19 04:14:03;;;;;;;10.20;5.72;;;19.70;60.20;;;;;;5078926;28;20026;-46
2023/10/19 04:16:31;;;;;;;9.70;6.05;;;19.70;60.10;;;;;;5067879;28;20131;-53
2023/10/19 04:18:58;;;;;;;11.65;6.03;;;19.70;60.00;;;;;;5068770;28;20509;-45
2023/10/19 04:21:24;;;;;;;12.90;6.30;;;19.70;60.00;;;;;;5069779;28;20515;-49
2023/10/19 04:23:49;;;;;;;13.30;7.28;;;19.70;60.10;;;;;;5067998;28;20408;-48
2023/10/19 04:26:18;;;;;;;10.50;6.10;;;19.70;60.10;;;;;;5072070;28;20013;-47
2023/10/19 04:28:50;;;;;;;10.55;6.05;;;19.70;60.10;;;;;;5062959;28;20036;-47
2023/10/19 04:31:17;;;;;;;12.57;6.38;;;19.70;60.10;;;;;;5070559;28;20023;-49
2023/10/19 04:33:45;;;;;;;14.70;6.70;;;19.70;60.30;;;;;;5061540;28;20446;-45
2023/10/19 04:36:13;;;;;;;12.13;6.22;;;19.70;60.20;;;;;;5064745;28;20029;-49
2023/10/19 04:38:39;;;;;;;12.32;6.32;;;19.70;60.20;;;;;;5071792;28;20047;-50
2023/10/19 04:41:09;;;;;;;11.27;6.38;;;19.70;60.30;;;;;;5070165;28;20025;-45
2023/10/19 04:43:39;;;;;;;11.98;6.60;;;19.70;60.20;;;;;;5063725;28;20047;-48
2023/10/19 04:46:13;;;;;;;12.40;6.60;;;19.70;60.20;;;;;;5064807;28;20104;-50
2023/10/19 04:48:40;;;;;;;15.05;6.60;;;19.70;60.20;;;;;;5064021;28;20174;-52
2023/10/19 04:51:07;;;;;;;14.70;6.70;;;19.70;60.20;;;;;;5065058;28;20028;-53
2023/10/19 04:53:33;;;;;;;13.15;6.78;;;19.70;60.30;;;;;;5067642;28;20029;-52
2023/10/19 04:56:01;;;;;;;12.63;6.57;;;19.70;60.30;;;;;;5074904;28;20392;-46
2023/10/19 04:58:28;;;;;;;13.40;6.75;;;19.70;60.30;;;;;;5061902;28;20438;-46
2023/10/19 05:00:54;;;;;;;13.25;6.80;;;19.70;60.50;;;;;;5078242;28;20020;-47
2023/10/19 05:03:20;;;;;;;13.00;7.10;;;19.70;60.50;;;;;;5065512;28;20035;-49
2023/10/19 05:05:45;;;;;;;14.90;6.82;;;19.70;60.30;;;;;;5062021;28;20467;-48
2023/10/19 05:08:11;;;;;;;13.80;7.05;;;19.70;60.30;;;;;;5069783;28;20028;-47
2023/10/19 05:10:37;;;;;;;12.15;7.03;;;19.70;60.30;;;;;;5071419;28;20016;-49
2023/10/19 05:13:04;;;;;;;13.00;7.15;;;19.70;60.30;;;;;;5060682;28;20036;-49
2023/10/19 05:15:29;;;;;;;15.18;6.88;;;19.70;60.40;;;;;;5059035;28;20511;-46
2023/10/19 05:17:56;;;;;;;14.32;7.22;;;19.70;60.20;;;;;;5060014;28;20028;-48
2023/10/19 05:20:23;;;;;;;14.75;7.07;;;19.70;60.50;;;;;;5066710;28;20028;-48
2023/10/19 05:22:49;;;;;;;12.10;6.68;;;19.70;60.30;;;;;;5062338;28;20038;-46
2023/10/19 05:25:15;;;;;;;11.77;6.97;;;19.70;60.70;;;;;;5066829;28;20032;-47
2023/10/19 05:27:42;;;;;;;14.40;7.00;;;19.70;60.40;;;;;;5065094;28;20480;-48
2023/10/19 05:30:11;;;;;;;12.57;7.07;;;19.70;60.40;;;;;;5061126;28;20455;-48
2023/10/19 05:32:37;;;;;;;15.00;6.90;;;19.70;60.20;;;;;;5064759;28;20065;-48
2023/10/19 05:35:04;;;;;;;12.20;6.82;;;19.70;60.20;;;;;;5077118;28;20454;-47
2023/10/19 05:37:31;;;;;;;12.65;7.63;;;19.70;60.10;;;;;;5070156;28;20043;-46
2023/10/19 05:39:57;;;;;;;15.88;7.45;;;19.70;59.70;;;;;;5071028;28;20111;-49
2023/10/19 05:42:23;;;;;;;14.98;8.25;;;19.70;59.80;;;;;;5067017;28;20083;-48
2023/10/19 05:44:49;;;;;;;12.88;7.45;;;19.70;59.70;;;;;;5078356;28;20025;-46
2023/10/19 05:47:14;;;;;;;13.38;7.30;;;19.70;59.80;;;;;;5072974;28;20017;-46
2023/10/19 05:49:40;;;;;;;13.38;7.30;;;19.80;60.10;;;;;;5073387;28;20048;-46
2023/10/19 05:52:06;;;;;;;15.63;8.00;;;19.80;59.90;;;;;;5074479;28;20025;-46
2023/10/19 05:54:32;;;;;;;17.10;7.85;;;19.80;60.00;;;;;;5080498;28;20025;-45
2023/10/19 05:56:58;;;;;;;14.50;7.53;;;19.80;59.40;;;;;;5080898;28;20028;-48
2023/10/19 05:59:26;;;;;;;15.38;7.22;;;19.80;60.10;;;;;;5077278;28;20385;-47
2023/10/19 06:01:52;;;;;;;14.30;7.30;;;19.90;60.30;;;;;;5066792;28;20074;-45
2023/10/19 06:04:18;;;;;;;14.57;7.38;;;19.90;61.20;;;;;;5062225;28;20075;-46
2023/10/19 06:06:44;;;;;;;14.80;7.00;;;19.90;60.30;;;;;;5067330;28;20392;-49
2023/10/19 06:09:09;;;;;;;15.70;8.07;;;19.90;61.50;;;;;;5074726;28;20028;-51
2023/10/19 06:11:37;;;;;;;17.67;8.32;;;19.90;59.80;;;;;;5074447;28;20024;-46
2023/10/19 06:14:06;;;;;;;23.25;8.20;;;19.90;61.10;;;;;;5109006;22;20044;-57
2023/10/19 06:16:34;;;;;;;18.38;8.13;;;19.90;61.10;;;;;;5099238;28;20099;-52
2023/10/19 06:19:00;;;;;;;24.98;8.48;;;19.90;61.10;;;;;;5097279;28;20095;-54
2023/10/19 06:21:26;;;;;;;25.08;8.13;;;19.90;61.40;;;;;;5096465;28;20012;-56
2023/10/19 06:23:53;;;;;;;21.98;8.77;;;19.90;62.30;;;;;;5094673;28;20568;-56
2023/10/19 06:26:19;;;;;;;18.45;7.90;;;19.90;61.50;;;;;;5091444;28;20075;-59
2023/10/19 06:28:45;;;;;;;24.95;8.60;;;19.80;61.70;;;;;;5076736;28;20424;-57
2023/10/19 06:31:11;;;;;;;23.30;8.55;;;19.80;61.40;;;;;;5094306;28;20048;-58
2023/10/19 06:33:41;;;;;;;17.83;8.25;;;19.80;61.50;;;;;;5093157;28;20046;-58
2023/10/19 06:36:07;;;;;;;17.13;7.60;;;19.80;62.00;;;;;;5075125;28;20028;-59
2023/10/19 06:38:33;;;;;;;15.25;7.72;;;19.80;62.00;;;;;;5091633;28;20403;-54
2023/10/19 06:41:11;;;;;;;17.48;7.70;;;19.70;61.20;;;;;;5084857;28;20024;-58
2023/10/19 06:43:38;;;;;;;23.60;8.23;;;19.80;61.80;;;;;;5079097;28;20082;-60
2023/10/19 06:46:04;;;;;;;18.77;7.38;;;19.80;61.40;;;;;;5087909;28;20036;-57
2023/10/19 06:48:30;;;;;;;21.73;7.18;;;19.80;62.10;;;;;;5088444;28;20021;-56
2023/10/19 06:50:56;;;;;;;15.60;7.13;;;19.80;62.80;;;;;;5082325;28;20055;-54
2023/10/19 06:53:22;;;;;;;18.50;7.93;;;19.80;62.80;;;;;;5074193;28;20064;-55
2023/10/19 06:55:48;;;;;;;15.82;7.40;;;19.80;63.00;;;;;;5074212;28;20669;-55
2023/10/19 06:58:19;;;;;;;31.95;8.32;;;19.80;63.00;;;;;;5080252;28;20034;-55
2023/10/19 07:00:55;;;;;;;32.03;12.02;;;19.80;64.80;;;;;;5084874;28;20391;-56
2023/10/19 07:03:22;;;;;;;35.10;12.18;;;19.80;65.50;;;;;;5092553;28;20372;-55
2023/10/19 07:05:49;;;;;;;29.25;12.13;;;19.80;64.60;;;;;;5078487;28;20048;-53
2023/10/19 07:08:15;;;;;;;24.15;11.00;;;19.70;64.10;;;;;;5079482;28;20020;-53
2023/10/19 07:10:42;;;;;;;21.92;10.82;;;19.70;62.10;;;;;;5088374;28;20016;-58
2023/10/19 07:13:08;;;;;;;19.27;9.25;;;19.70;62.10;;;;;;5073320;28;20051;-57
2023/10/19 07:15:34;;;;;;;20.52;8.85;;;19.70;62.30;;;;;;5073742;28;20025;-54
2023/10/19 07:18:00;;;;;;;20.33;8.32;;;19.70;62.90;;;;;;5073626;28;20033;-54
2023/10/19 07:20:31;;;;;;;30.27;8.38;;;19.90;62.30;;;;;;5079251;28;20032;-54
2023/10/19 07:23:18;;;;;;;23.27;7.90;;;19.90;62.30;;;;;;5073183;28;20017;-60
2023/10/19 07:25:45;;;;;;;18.45;8.02;;;19.90;63.50;;;;;;5073745;28;20396;-53
2023/10/19 07:28:14;;;;;;;18.63;8.75;;;19.90;63.70;;;;;;5072124;28;20690;-56
2023/10/19 07:30:41;;;;;;;17.92;8.52;;;19.90;66.40;;;;;;5073209;28;20071;-59
2023/10/19 07:33:09;;;;;;;22.85;8.65;;;19.80;65.10;;;;;;5072903;28;20066;-57
2023/10/19 07:35:39;;;;;;;34.95;8.68;;;19.80;64.60;;;;;;5073216;28;20480;-58
2023/10/19 07:38:07;;;;;;;26.95;8.38;;;19.80;64.70;;;;;;5084916;28;20028;-55
2023/10/19 07:40:36;;;;;;;17.27;9.73;;;19.80;63.80;;;;;;5083770;28;20024;-54
2023/10/19 07:43:03;;;;;;;22.23;8.20;;;19.80;63.50;;;;;;5083935;28;20020;-55
2023/10/19 07:45:31;;;;;;;23.13;9.00;;;19.80;64.80;;;;;;5079281;28;20039;-57
2023/10/19 07:47:58;;;;;;;20.98;9.68;;;19.80;65.40;;;;;;5070632;28;20036;-55
2023/10/19 07:50:24;;;;;;;18.30;9.10;;;19.80;64.80;;;;;;5073092;28;20024;-57
2023/10/19 07:52:51;;;;;;;17.63;7.60;;;19.80;64.80;;;;;;5072980;28;20021;-57
2023/10/19 07:55:18;;;;;;;18.20;9.23;;;19.70;64.80;;;;;;5073099;28;20028;-54
2023/10/19 07:57:45;;;;;;;19.52;8.57;;;19.70;66.10;;;;;;5073085;28;20029;-57
2023/10/19 08:00:15;;;;;;;21.15;9.10;;;19.70;65.40;;;;;;5073046;28;20028;-54
2023/10/19 08:02:41;;;;;;;;;;;19.70;66.00;;;;;;5072965;28;20078;-53
2023/10/19 08:05:08;;;;;;;21.27;9.13;;;19.70;66.60;;;;;;5072886;28;20338;-56
2023/10/19 08:07:39;;;;;;;17.10;9.13;;;19.70;66.80;;;;;;5072337;28;20391;-57
2023/10/19 08:10:10;;;;;;;17.33;8.82;;;19.70;66.60;;;;;;5071633;28;20025;-55
2023/10/19 08:12:37;;;;;;;15.57;7.78;;;19.70;66.50;;;;;;5072318;28;20082;-53
2023/10/19 08:15:03;;;;;;;17.13;8.98;;;19.70;66.30;;;;;;5072912;28;20030;-54
2023/10/19 08:17:30;;;;;;;17.05;9.23;;;19.70;66.60;;;;;;5071327;28;20040;-57
2023/10/19 08:19:57;;;;;;;22.80;9.30;;;19.70;66.90;;;;;;5072616;28;20487;-57
2023/10/19 08:22:23;;;;;;;15.77;8.77;;;19.70;67.00;;;;;;5072499;28;20404;-56
2023/10/19 08:24:52;;;;;;;18.10;8.48;;;19.70;66.00;;;;;;5072448;28;20027;-54
2023/10/19 08:27:18;;;;;;;15.63;8.53;;;19.70;66.60;;;;;;5072446;28;20032;-52
2023/10/19 08:29:44;;;;;;;17.80;9.02;;;19.70;66.30;;;;;;5072308;28;20070;-55
2023/10/19 08:32:10;;;;;;;15.52;8.63;;;19.70;66.50;;;;;;5072024;28;20020;-54
2023/10/19 08:34:36;;;;;;;16.48;8.82;;;19.70;66.20;;;;;;5072394;28;20070;-55
2023/10/19 08:37:04;;;;;;;18.33;8.65;;;19.70;65.90;;;;;;5072250;28;20459;-55
2023/10/19 08:39:36;;;;;;;16.48;8.63;;;19.70;66.10;;;;;;5071835;28;20024;-54
2023/10/19 08:42:05;;;;;;;18.08;8.65;;;19.70;66.10;;;;;;5071873;28;20029;-57
2023/10/19 08:44:32;;;;;;;17.27;8.93;;;19.70;66.00;;;;;;5071973;28;20116;-50
2023/10/19 08:46:59;;;;;;;16.73;8.93;;;19.70;66.00;;;;;;5072120;28;20549;-54
2023/10/19 08:49:26;;;;;;;17.45;8.50;;;19.70;65.80;;;;;;5072066;28;20035;-57
2023/10/19 08:51:53;;;;;;;17.88;8.50;;;19.70;65.50;;;;;;5071689;28;20029;-55
2023/10/19 08:54:20;;;;;;;18.88;8.52;;;19.70;65.00;;;;;;5071925;28;20025;-50
2023/10/19 08:56:47;;;;;;;14.05;7.70;;;19.70;64.70;;;;;;5072080;28;20024;-56
2023/10/19 08:59:15;;;;;;;15.23;8.27;;;19.70;64.80;;;;;;5071917;28;20024;-53
2023/10/19 09:01:44;;;;;;;14.63;7.88;;;19.70;64.70;;;;;;5071525;28;20496;-53
2023/10/19 09:04:11;;;;;;;13.45;7.50;;;19.70;64.50;;;;;;5071763;28;20221;-56
2023/10/19 09:06:43;;;;;;;15.10;8.25;;;19.70;64.50;;;;;;5070459;28;20426;-55
2023/10/19 09:09:25;;;;;;;14.82;7.93;;;19.70;64.40;;;;;;5071828;28;20060;-58
2023/10/19 09:11:54;;;;;;;13.65;7.72;;;19.70;64.10;;;;;;5071511;28;20427;-53
2023/10/19 09:14:41;;;;;;;15.25;8.30;;;19.70;64.30;;;;;;5071562;28;20550;-56
2023/10/19 09:17:07;;;;;;;14.25;7.57;;;19.70;63.80;;;;;;5070126;28;20423;-54
2023/10/19 09:19:38;;;;;;;14.60;7.88;;;19.70;64.10;;;;;;5071248;28;20029;-53
2023/10/19 09:22:08;;;;;;;16.08;8.00;;;19.70;64.10;;;;;;5071336;28;20419;-56
2023/10/19 09:24:35;;;;;;;13.80;7.85;;;19.70;64.00;;;;;;5071418;28;20112;-56
2023/10/19 09:27:03;;;;;;;16.95;7.65;;;19.70;63.80;;;;;;5071560;28;20037;-55
2023/10/19 09:29:31;;;;;;;13.55;7.15;;;19.70;63.80;;;;;;5071430;28;20024;-51
2023/10/19 09:32:02;;;;;;;11.23;6.75;;;19.70;63.80;;;;;;5071173;28;20025;-57
2023/10/19 09:34:32;;;;;;;13.82;7.63;;;19.70;63.20;;;;;;5071484;28;20484;-49
2023/10/19 09:37:02;;;;;;;12.77;7.38;;;19.70;63.90;;;;;;5071467;28;20063;-47
2023/10/19 09:39:34;;;;;;;15.05;7.35;;;19.70;63.30;;;;;;5071553;28;20062;-53
2023/10/19 09:42:10;;;;;;;11.60;7.03;;;19.70;63.70;;;;;;5071271;28;20052;-48
2023/10/19 09:45:05;;;;;;;15.55;7.68;;;19.70;63.70;;;;;;5071346;28;20024;-54
2023/10/19 09:47:35;;;;;;;13.18;7.30;;;19.70;63.60;;;;;;5071498;28;20467;-54
2023/10/19 09:50:05;;;;;;;14.50;7.28;;;19.70;63.70;;;;;;5070181;28;20058;-56
2023/10/19 09:52:32;;;;;;;14.38;7.57;;;19.70;63.50;;;;;;5069762;28;20074;-55
2023/10/19 09:55:19;;;;;;;14.77;7.90;;;19.70;63.50;;;;;;5070283;28;20036;-57
2023/10/19 09:58:04;;;;;;;12.68;7.10;;;19.70;63.80;;;;;;5071991;28;20059;-49
2023/10/19 10:00:31;;;;;;;13.68;7.07;;;19.70;64.10;;;;;;5070739;28;20038;-52
2023/10/19 10:02:57;;;;;;;13.27;7.18;;;19.70;63.50;;;;;;5071705;28;20029;-54
2023/10/19 10:05:42;;;;;;;12.02;6.80;;;19.70;63.50;;;;;;5071919;28;20032;-49
2023/10/19 10:08:16;;;;;;;13.82;7.53;;;19.70;63.30;;;;;;5070774;28;20127;-55
2023/10/19 10:10:46;;;;;;;11.27;6.70;;;19.70;63.40;;;;;;5071687;28;20029;-54
2023/10/19 10:13:41;;;;;;;;;;;19.70;63.50;;;;;;5071398;28;20024;-52
2023/10/19 10:16:07;;;;;;;11.20;6.85;;;19.70;63.40;;;;;;5028903;28;19982;-51
2023/10/19 10:18:34;;;;;;;12.93;7.22;;;19.70;63.40;;;;;;5029032;28;20018;-47
2023/10/19 10:21:10;;;;;;;12.93;7.03;;;19.70;63.30;;;;;;5012432;28;20108;-54
2023/10/19 10:23:57;;;;;;;13.25;6.50;;;19.70;63.30;;;;;;5029002;28;20030;-50
2023/10/19 10:26:35;;;;;;;13.95;7.13;;;19.70;63.30;;;;;;5028976;28;20127;-49
2023/10/19 10:29:19;;;;;;;13.27;7.03;;;19.70;63.30;;;;;;5029376;28;20036;-50
2023/10/19 10:31:47;;;;;;;12.10;6.70;;;19.60;63.30;;;;;;5032363;28;20029;-49
2023/10/19 10:34:33;;;;;;;13.20;6.65;;;19.70;63.10;;;;;;5032485;28;20041;-48
2023/10/19 10:37:03;;;;;;;12.60;6.80;;;19.70;63.20;;;;;;5019603;28;20041;-50
2023/10/19 10:39:30;;;;;;;12.90;7.10;;;19.70;63.20;;;;;;5032380;28;20065;-48
2023/10/19 10:42:00;;;;;;;13.38;6.70;;;19.70;62.60;;;;;;5032017;28;20033;-48
2023/10/19 10:44:55;;;;;;;11.90;7.07;;;19.70;63.30;;;;;;5032102;28;20052;-51
2023/10/19 10:47:24;;;;;;;11.90;6.57;;;19.70;63.30;;;;;;4954050;29;20031;-53
2023/10/19 10:50:00;;;;;;;13.98;7.50;;;19.70;63.40;;;;;;4954104;29;20035;-54
2023/10/19 10:52:36;;;;;;;14.60;7.32;;;19.70;63.10;;;;;;4971722;28;20117;-49
2023/10/19 10:55:13;;;;;;;13.20;7.40;;;19.70;63.40;;;;;;4992764;28;20030;-56
2023/10/19 10:57:40;;;;;;;12.27;6.95;;;19.70;63.40;;;;;;4992756;28;20045;-53
2023/10/19 11:00:18;;;;;;;13.02;7.05;;;19.70;63.50;;;;;;4992537;28;20060;-50
2023/10/19 11:02:46;;;;;;;13.98;7.32;;;19.70;63.40;;;;;;4992271;28;20046;-50
2023/10/19 11:05:16;;;;;;;12.27;6.70;;;19.70;63.40;;;;;;4992513;28;20497;-51
2023/10/19 11:08:09;;;;;;;12.95;7.22;;;19.70;63.30;;;;;;4992501;28;20109;-54
2023/10/19 11:10:36;;;;;;;12.13;7.50;;;19.70;63.40;;;;;;4992436;28;20105;-52
2023/10/19 11:13:06;;;;;;;13.30;6.60;;;19.70;63.30;;;;;;4991815;28;20537;-51
2023/10/19 11:15:33;;;;;;;;;;;19.70;63.20;;;;;;4992814;28;20425;-54
2023/10/19 11:17:58;;;;;;;12.70;7.15;;;19.70;63.20;;;;;;4992184;28;19910;-49
2023/10/19 11:20:27;;;;;;;15.18;8.82;;;19.70;63.20;;;;;;4992328;28;20038;-53
2023/10/19 11:22:55;;;;;;;15.20;8.05;;;19.70;63.20;;;;;;4987341;28;20234;-49
2023/10/19 11:25:30;;;;;;;15.38;7.93;;;19.70;63.30;;;;;;5073831;28;20036;-50
2023/10/19 11:28:00;;;;;;;14.73;7.97;;;19.70;63.20;;;;;;5074202;28;20024;-50
2023/10/19 11:30:28;;;;;;;13.02;7.75;;;19.70;63.00;;;;;;5073752;28;20078;-51
2023/10/19 11:32:59;;;;;;;14.60;8.25;;;19.70;63.00;;;;;;5073408;28;20534;-49
2023/10/19 11:35:31;;;;;;;13.30;7.72;;;19.70;63.20;;;;;;5072501;28;20032;-47
2023/10/19 11:37:59;;;;;;;12.55;7.07;;;19.70;63.10;;;;;;5073602;28;20123;-49
2023/10/19 11:40:26;;;;;;;12.00;7.22;;;19.70;63.00;;;;;;5072905;28;20028;-47
2023/10/19 11:42:56;;;;;;;11.05;7.10;;;19.70;62.90;;;;;;5071709;28;20033;-47
2023/10/19 11:45:25;;;;;;;12.85;6.93;;;19.70;62.90;;;;;;5073495;28;20396;-48
2023/10/19 11:47:51;;;;;;;11.73;6.88;;;19.70;62.80;;;;;;5073560;28;20020;-51
2023/10/19 11:50:19;;;;;;;11.63;6.93;;;19.70;62.90;;;;;;5073342;28;20031;-50
2023/10/19 11:52:48;;;;;;;11.00;6.50;;;19.70;62.80;;;;;;5072875;28;20044;-56
2023/10/19 11:55:15;;;;;;;11.27;7.00;;;19.70;62.80;;;;;;5073305;28;20561;-47
2023/10/19 11:57:43;;;;;;;13.70;7.22;;;19.70;62.80;;;;;;5073134;28;20028;-54
2023/10/19 12:00:15;;;;;;;12.55;6.55;;;19.70;62.80;;;;;;5073228;28;20028;-48
2023/10/19 12:02:41;;;;;;;11.65;6.82;;;19.70;62.70;;;;;;5072753;28;20040;-52
2023/10/19 12:05:10;;;;;;;12.52;7.18;;;19.70;62.70;;;;;;5073473;28;20036;-52
2023/10/19 12:07:39;;;;;;;12.77;6.70;;;19.70;62.70;;;;;;5072987;28;20097;-47
2023/10/19 12:10:07;;;;;;;12.05;6.75;;;19.70;62.70;;;;;;5073103;28;20056;-50
2023/10/19 12:12:34;;;;;;;10.85;6.55;;;19.60;62.80;;;;;;5072469;28;20048;-56
2023/10/19 12:15:00;;;;;;;11.93;6.40;;;19.70;62.80;;;;;;5094758;22;20036;-56
2023/10/19 12:17:27;;;;;;;11.23;6.30;;;19.70;62.70;;;;;;5072415;28;20050;-58
2023/10/19 12:19:54;;;;;;;11.25;6.72;;;19.70;62.60;;;;;;5072718;28;20021;-58
2023/10/19 12:22:21;;;;;;;10.48;6.50;;;19.70;62.80;;;;;;5071140;28;20024;-59
2023/10/19 12:24:48;;;;;;;12.38;6.82;;;19.70;62.60;;;;;;5072410;28;20039;-58
2023/10/19 12:27:14;;;;;;;12.43;7.13;;;19.70;62.70;;;;;;5071490;28;20035;-58
2023/10/19 12:29:40;;;;;;;11.30;6.30;;;19.60;62.70;;;;;;5072498;28;20021;-58
2023/10/19 12:32:06;;;;;;;11.38;6.32;;;19.60;62.70;;;;;;5072229;28;20024;-58
2023/10/19 12:34:33;;;;;;;12.30;7.05;;;19.60;62.70;;;;;;5072290;28;20020;-58
2023/10/19 12:36:59;;;;;;;14.18;7.00;;;19.70;62.70;;;;;;5072283;28;20496;-57
2023/10/19 12:39:45;;;;;;;10.52;6.53;;;19.60;62.60;;;;;;5072605;28;20115;-59
2023/10/19 12:42:11;;;;;;;10.70;6.65;;;19.70;62.70;;;;;;5071888;28;20414;-58
2023/10/19 12:44:40;;;;;;;12.65;6.75;;;19.70;62.90;;;;;;5071983;28;20435;-58
2023/10/19 12:47:14;;;;;;;11.57;6.63;;;19.60;62.60;;;;;;5072125;28;20537;-57
2023/10/19 12:49:40;;;;;;;12.93;6.57;;;19.60;62.60;;;;;;5072089;28;20546;-58
2023/10/19 12:52:10;;;;;;;11.77;6.82;;;19.70;62.70;;;;;;5071838;28;20021;-61
2023/10/19 12:54:37;;;;;;;11.75;6.97;;;19.60;62.80;;;;;;5071949;28;20111;-59
2023/10/19 12:57:09;;;;;;;13.15;7.10;;;19.60;62.70;;;;;;5071936;28;20040;-59
2023/10/19 12:59:39;;;;;;;10.68;6.43;;;19.60;62.70;;;;;;5071990;28;20038;-59
2023/10/19 13:02:14;;;;;;;12.55;7.22;;;19.60;62.60;;;;;;5071593;28;20104;-59
2023/10/19 13:04:42;;;;;;;13.57;7.00;;;19.70;62.70;;;;;;5071761;28;20036;-59
2023/10/19 13:07:07;;;;;;;11.90;7.22;;;19.60;62.60;;;;;;5071743;28;20071;-59
2023/10/19 13:09:36;;;;;;;10.88;6.88;;;19.60;62.60;;;;;;5071847;28;20078;-59